La Russell, Missouri
Current Conditions -  °F | °C
As of 7:15 PM on Sunday 21 Dec 2014 (Local Time) from KHFJ Reporting Station
Overcast Overcast  
Wind Chill: 35°   Ceiling: 6000
Heat Index: 41°   Visibility: 10mi
Dew Point: 37°   Wind: 9mph
Humidity: 87%   Direction: 140°SE
Pressure: 29.85"   Gusts: NA
Location:  37.14°N, 94.06°W
Report Text: KHFJ 220115Z AUTO 14008KT 10SM OVC060 05/03 A2985 RMK AO2
Loading
Personal Weather Stations






























Interactive Weather Map New forecast layout! Learn more

10-Day Weather Forecast

Advertisements
Track Severe Weather on mobile